Time;durP1;ratioP1;P1;durP2;ratioP2;P2;SDS_P1;SDS_P2;PMS_P1;PMS_P2;Temp;Humidity;BMP_temperature;BMP_pressure;BME280_temperature;BME280_humidity;BME280_pressure;Samples;Min_cycle;Max_cycle;Signal;HPM_P1;HPM_P2
2024/04/13 00:02:51;;;;;;;10.30;2.90;;;;;;;;;;103795;1289;544791;-72
2024/04/13 00:06:28;;;;;;;8.20;3.20;;;;;;;;;;103735;1292;545755;-71
2024/04/13 00:10:06;;;;;;;7.40;2.70;;;;;;;;;;103556;1298;544929;-71
2024/04/13 00:13:43;;;;;;;9.10;2.50;;;;;;;;;;103530;1291;545170;-71
2024/04/13 00:17:24;;;;;;;7.30;2.60;;;;;;;;;;103612;1292;545038;-70
2024/04/13 00:21:02;;;;;;;7.90;2.70;;;;;;;;;;103938;1300;545270;-73
2024/04/13 00:24:36;;;;;;;8.40;2.80;;;;;;;;;;103757;1289;545668;-70
2024/04/13 00:28:13;;;;;;;8.20;2.70;;;;;;;;;;103704;1292;544728;-71
2024/04/13 00:31:50;;;;;;;9.10;2.70;;;;;;;;;;103675;1292;545027;-70
2024/04/13 00:35:28;;;;;;;6.40;2.60;;;;;;;;;;103839;1289;546219;-71
2024/04/13 00:39:06;;;;;;;8.70;3.10;;;;;;;;;;104225;1284;546093;-70
2024/04/13 00:42:43;;;;;;;7.80;2.70;;;;;;;;;;103777;1292;544908;-72
2024/04/13 00:46:24;;;;;;;6.80;2.60;;;;;;;;;;103677;1292;545571;-71
2024/04/13 00:49:58;;;;;;;7.30;2.80;;;;;;;;;;104349;1282;545564;-73
2024/04/13 00:53:53;;;;;;;7.10;3.00;;;;;;;;;;103787;1289;547996;-70
2024/04/13 00:57:14;;;;;;;7.90;3.00;;;;;;;;;;103803;1289;545412;-71
2024/04/13 01:00:52;;;;;;;7.00;2.60;;;;;;;;;;103678;1290;544913;-72
2024/04/13 01:04:28;;;;;;;9.00;2.40;;;;;;;;;;103694;1294;545478;-71
2024/04/13 01:08:06;;;;;;;8.90;2.80;;;;;;;;;;103979;1286;544767;-72
2024/04/13 01:11:43;;;;;;;7.40;2.50;;;;;;;;;;104001;1288;544949;-70
2024/04/13 01:15:26;;;;;;;7.20;2.50;;;;;;;;;;104048;1286;545620;-69
2024/04/13 01:18:58;;;;;;;7.90;2.70;;;;;;;;;;103696;1292;545170;-71
2024/04/13 01:22:42;;;;;;;7.00;2.50;;;;;;;;;;103625;1291;545174;-71
2024/04/13 01:26:13;;;;;;;6.40;2.90;;;;;;;;;;103632;1297;545528;-72
2024/04/13 01:29:51;;;;;;;7.00;2.60;;;;;;;;;;103716;1292;545069;-70
2024/04/13 01:33:31;;;;;;;6.70;2.60;;;;;;;;;;103982;1288;546035;-71
2024/04/13 01:37:03;;;;;;;7.00;2.50;;;;;;;;;;103559;1291;545162;-69
2024/04/13 01:40:42;;;;;;;7.30;2.90;;;;;;;;;;103781;1289;546667;-70
2024/04/13 01:44:17;;;;;;;7.60;2.60;;;;;;;;;;103821;1289;545424;-70
2024/04/13 01:47:57;;;;;;;7.40;2.70;;;;;;;;;;103880;1302;544882;-71
2024/04/13 01:51:35;;;;;;;8.00;3.00;;;;;;;;;;103787;1290;545171;-72
2024/04/13 01:55:13;;;;;;;9.40;3.30;;;;;;;;;;103560;1291;545002;-72
2024/04/13 01:58:51;;;;;;;7.20;2.80;;;;;;;;;;103781;1289;544968;-70
2024/04/13 02:02:28;;;;;;;6.90;3.00;;;;;;;;;;104053;1288;546472;-71
2024/04/13 02:06:08;;;;;;;9.90;3.20;;;;;;;;;;103767;1291;545719;-69
2024/04/13 02:09:43;;;;;;;7.30;3.20;;;;;;;;;;103766;1294;544719;-70
2024/04/13 02:13:21;;;;;;;9.40;3.30;;;;;;;;;;103864;1292;545133;-71
2024/04/13 02:16:57;;;;;;;6.80;2.70;;;;;;;;;;104198;1286;544917;-71
2024/04/13 02:20:36;;;;;;;7.00;2.40;;;;;;;;;;103824;1292;544950;-72
2024/04/13 02:24:13;;;;;;;6.70;3.00;;;;;;;;;;103810;1289;545140;-72
2024/04/13 02:27:51;;;;;;;8.70;2.80;;;;;;;;;;104023;1289;545007;-74
2024/04/13 02:31:24;;;;;;;9.20;3.10;;;;;;;;;;103816;1292;545972;-71
2024/04/13 02:35:07;;;;;;;8.60;2.70;;;;;;;;;;104574;1283;545443;-71
2024/04/13 02:38:43;;;;;;;7.40;3.10;;;;;;;;;;103689;1289;545805;-71
2024/04/13 02:42:20;;;;;;;7.80;3.20;;;;;;;;;;103848;1289;544726;-70
2024/04/13 02:46:04;;;;;;;10.20;3.30;;;;;;;;;;103742;1291;545813;-70
2024/04/13 02:49:35;;;;;;;7.50;3.00;;;;;;;;;;104106;1286;545374;-71
2024/04/13 02:53:13;;;;;;;9.20;3.30;;;;;;;;;;103668;1295;544856;-71
2024/04/13 02:56:51;;;;;;;10.10;2.80;;;;;;;;;;103769;1292;544796;-71
2024/04/13 03:00:28;;;;;;;6.50;2.70;;;;;;;;;;103724;1290;545338;-73
2024/04/13 03:04:06;;;;;;;6.80;2.70;;;;;;;;;;103852;1289;544801;-71
2024/04/13 03:07:42;;;;;;;8.30;3.00;;;;;;;;;;103996;1290;545045;-70
2024/04/13 03:11:21;;;;;;;8.60;2.80;;;;;;;;;;104027;1288;544724;-70
2024/04/13 03:14:58;;;;;;;5.90;2.60;;;;;;;;;;103929;1289;545187;-71
2024/04/13 03:18:39;;;;;;;8.40;3.10;;;;;;;;;;103703;1296;544963;-70
2024/04/13 03:22:12;;;;;;;7.10;2.60;;;;;;;;;;103812;1289;544986;-75
2024/04/13 03:25:50;;;;;;;7.00;2.80;;;;;;;;;;103931;1289;545335;-71
2024/04/13 03:29:27;;;;;;;6.20;2.70;;;;;;;;;;104151;1288;545128;-71
2024/04/13 03:33:05;;;;;;;7.70;2.50;;;;;;;;;;103789;1290;545395;-71
2024/04/13 03:36:42;;;;;;;6.00;2.80;;;;;;;;;;103818;1289;545341;-72
2024/04/13 03:40:20;;;;;;;8.00;2.80;;;;;;;;;;103741;1293;544761;-71
2024/04/13 03:43:57;;;;;;;8.00;2.50;;;;;;;;;;103742;1292;545099;-69
2024/04/13 03:47:35;;;;;;;8.80;3.10;;;;;;;;;;103899;1289;545133;-72
2024/04/13 03:51:13;;;;;;;7.50;3.10;;;;;;;;;;104470;1283;545425;-70
2024/04/13 03:54:50;;;;;;;7.90;2.80;;;;;;;;;;104457;1283;545450;-72
2024/04/13 03:58:28;;;;;;;6.80;2.30;;;;;;;;;;103894;1290;544876;-73
2024/04/13 04:02:04;;;;;;;6.90;2.70;;;;;;;;;;103648;1295;544981;-70
2024/04/13 04:05:42;;;;;;;6.20;2.70;;;;;;;;;;103791;1289;545595;-70
2024/04/13 04:09:20;;;;;;;6.90;2.20;;;;;;;;;;103631;1295;545505;-71
2024/04/13 04:12:53;;;;;;;7.60;2.70;;;;;;;;;;104031;1287;544788;-73
2024/04/13 04:16:35;;;;;;;6.30;2.50;;;;;;;;;;103730;1291;545347;-72
2024/04/13 04:20:13;;;;;;;6.70;2.80;;;;;;;;;;103755;1291;544772;-73
2024/04/13 04:23:50;;;;;;;6.30;2.50;;;;;;;;;;103832;1298;545774;-70
2024/04/13 04:27:27;;;;;;;6.10;2.20;;;;;;;;;;103656;1294;545756;-70
2024/04/13 04:31:09;;;;;;;6.40;2.60;;;;;;;;;;103713;1292;545082;-70
2024/04/13 04:34:42;;;;;;;8.10;3.20;;;;;;;;;;103664;1292;545288;-70
2024/04/13 04:38:20;;;;;;;10.50;3.00;;;;;;;;;;103813;1290;544979;-70
2024/04/13 04:41:57;;;;;;;8.60;2.90;;;;;;;;;;103534;1291;545122;-72
2024/04/13 04:45:36;;;;;;;9.20;3.10;;;;;;;;;;103858;1288;544810;-71
2024/04/13 04:49:12;;;;;;;7.80;2.90;;;;;;;;;;103964;1289;544813;-71
2024/04/13 04:52:50;;;;;;;10.00;2.80;;;;;;;;;;103595;1292;545763;-70
2024/04/13 04:56:26;;;;;;;8.10;2.90;;;;;;;;;;103699;1291;546504;-72
2024/04/13 05:00:13;;;;;;;9.20;2.90;;;;;;;;;;104579;1281;544600;-70
2024/04/13 05:03:42;;;;;;;9.30;2.80;;;;;;;;;;103969;1291;544934;-71
2024/04/13 05:07:20;;;;;;;7.90;3.20;;;;;;;;;;103625;1293;545351;-70
2024/04/13 05:10:57;;;;;;;7.10;3.20;;;;;;;;;;103677;1295;545525;-70
2024/04/13 05:14:36;;;;;;;9.30;2.60;;;;;;;;;;103673;1291;545546;-71
2024/04/13 05:18:12;;;;;;;8.50;2.80;;;;;;;;;;103744;1291;546476;-72
2024/04/13 05:21:50;;;;;;;8.10;2.60;;;;;;;;;;103608;1295;546036;-70
2024/04/13 05:25:27;;;;;;;9.80;3.10;;;;;;;;;;104032;1286;547307;-71
2024/04/13 05:29:05;;;;;;;8.70;3.00;;;;;;;;;;103662;1291;545646;-73
2024/04/13 05:32:42;;;;;;;7.60;2.50;;;;;;;;;;103861;1292;545345;-72
2024/04/13 05:36:27;;;;;;;9.90;3.50;;;;;;;;;;104077;1286;547738;-71
2024/04/13 05:39:57;;;;;;;9.10;3.10;;;;;;;;;;103576;1295;545186;-72
2024/04/13 05:43:35;;;;;;;10.20;3.30;;;;;;;;;;103867;1292;545076;-70
2024/04/13 05:47:12;;;;;;;11.90;3.30;;;;;;;;;;103727;1293;545146;-73
2024/04/13 05:50:57;;;;;;;7.80;3.10;;;;;;;;;;103922;1289;544767;-70
2024/04/13 05:54:26;;;;;;;7.70;3.40;;;;;;;;;;103827;1292;544904;-71
2024/04/13 05:58:04;;;;;;;9.00;3.10;;;;;;;;;;103529;1298;545056;-72
2024/04/13 06:01:42;;;;;;;9.80;3.90;;;;;;;;;;103671;1294;546392;-70
2024/04/13 06:05:20;;;;;;;8.90;4.00;;;;;;;;;;103709;1288;545856;-72
2024/04/13 06:08:56;;;;;;;8.50;3.80;;;;;;;;;;103840;1289;544822;-71
2024/04/13 06:12:35;;;;;;;9.40;3.60;;;;;;;;;;103712;1290;545565;-71
2024/04/13 06:16:12;;;;;;;8.10;3.80;;;;;;;;;;103877;1289;546693;-72
2024/04/13 06:19:55;;;;;;;9.60;4.10;;;;;;;;;;103689;1295;545471;-71
2024/04/13 06:23:28;;;;;;;7.70;3.60;;;;;;;;;;103908;1289;544799;-72
2024/04/13 06:27:05;;;;;;;8.80;3.90;;;;;;;;;;103928;1296;545041;-71
2024/04/13 06:30:42;;;;;;;8.90;4.00;;;;;;;;;;104158;1291;545150;-71
2024/04/13 06:34:20;;;;;;;7.90;4.00;;;;;;;;;;103876;1291;544868;-71
2024/04/13 06:37:57;;;;;;;8.00;4.20;;;;;;;;;;103853;1289;545334;-71
2024/04/13 06:41:35;;;;;;;8.50;4.00;;;;;;;;;;103673;1289;545714;-71
2024/04/13 06:45:07;;;;;;;8.70;4.20;;;;;;;;;;104008;1286;545018;-70
2024/04/13 06:48:49;;;;;;;8.60;4.50;;;;;;;;;;104012;1285;544794;-70
2024/04/13 06:52:27;;;;;;;8.30;4.30;;;;;;;;;;104426;1286;544774;-72
2024/04/13 06:56:05;;;;;;;8.50;4.00;;;;;;;;;;103653;1292;547316;-72
2024/04/13 06:59:41;;;;;;;10.50;4.30;;;;;;;;;;104244;1283;545509;-72
2024/04/13 07:03:19;;;;;;;10.50;4.60;;;;;;;;;;103842;1288;546348;-71
2024/04/13 07:06:57;;;;;;;9.60;4.30;;;;;;;;;;103863;1292;545590;-71
2024/04/13 07:10:35;;;;;;;10.20;4.20;;;;;;;;;;104548;1283;544959;-75
2024/04/13 07:14:11;;;;;;;8.40;4.10;;;;;;;;;;103779;1289;545639;-70
2024/04/13 07:17:49;;;;;;;10.40;3.80;;;;;;;;;;103603;1291;545539;-70
2024/04/13 07:21:26;;;;;;;9.10;3.60;;;;;;;;;;103820;1296;545812;-74
2024/04/13 07:25:05;;;;;;;8.70;3.20;;;;;;;;;;103772;1292;545111;-73
2024/04/13 07:28:41;;;;;;;7.30;2.40;;;;;;;;;;103823;1301;545752;-70
2024/04/13 07:32:19;;;;;;;8.40;3.20;;;;;;;;;;103874;1289;545336;-70
2024/04/13 07:35:56;;;;;;;10.50;2.90;;;;;;;;;;103692;1295;545076;-69
2024/04/13 07:39:34;;;;;;;10.80;3.80;;;;;;;;;;103707;1289;546130;-71
2024/04/13 07:43:07;;;;;;;13.80;3.50;;;;;;;;;;103658;1291;545659;-70
2024/04/13 07:46:49;;;;;;;9.50;3.60;;;;;;;;;;103651;1292;545428;-71
2024/04/13 07:50:31;;;;;;;8.20;3.40;;;;;;;;;;103694;1291;545767;-69
2024/04/13 07:54:04;;;;;;;9.00;3.40;;;;;;;;;;103867;1289;544833;-70
2024/04/13 07:57:41;;;;;;;7.70;3.50;;;;;;;;;;103681;1293;544929;-69
2024/04/13 08:01:19;;;;;;;8.80;4.20;;;;;;;;;;104227;1282;547526;-71
2024/04/13 08:04:56;;;;;;;7.90;3.60;;;;;;;;;;103688;1291;546781;-70
2024/04/13 08:08:34;;;;;;;11.10;3.90;;;;;;;;;;103868;1289;544697;-72
2024/04/13 08:12:11;;;;;;;8.20;3.80;;;;;;;;;;104296;1283;545586;-70
2024/04/13 08:15:49;;;;;;;7.50;3.20;;;;;;;;;;103706;1302;546336;-72
2024/04/13 08:19:26;;;;;;;10.10;3.70;;;;;;;;;;103674;1300;545544;-70
2024/04/13 08:23:00;;;;;;;7.60;3.40;;;;;;;;;;103717;1289;545440;-69
2024/04/13 08:26:41;;;;;;;10.00;3.90;;;;;;;;;;103726;1289;544779;-70
2024/04/13 08:30:19;;;;;;;7.40;3.60;;;;;;;;;;103767;1288;544989;-72
2024/04/13 08:33:55;;;;;;;9.10;3.70;;;;;;;;;;103691;1289;545684;-72
2024/04/13 08:37:33;;;;;;;9.40;4.10;;;;;;;;;;103814;1301;544981;-69
2024/04/13 08:41:29;;;;;;;10.00;3.30;;;;;;;;;;104206;1286;545784;-71
2024/04/13 08:44:51;;;;;;;8.10;3.60;;;;;;;;;;103816;1289;544899;-72
2024/04/13 08:48:26;;;;;;;7.10;3.20;;;;;;;;;;103848;1289;545097;-73
2024/04/13 08:52:06;;;;;;;7.60;3.50;;;;;;;;;;103745;1290;546191;-71
2024/04/13 08:55:41;;;;;;;9.90;4.00;;;;;;;;;;103600;1291;545323;-70
2024/04/13 08:59:19;;;;;;;8.70;3.50;;;;;;;;;;103711;1288;544857;-71
2024/04/13 09:02:56;;;;;;;11.00;4.10;;;;;;;;;;103901;1292;545529;-75
2024/04/13 09:06:33;;;;;;;13.50;4.50;;;;;;;;;;103789;1289;545549;-70
2024/04/13 09:10:11;;;;;;;8.70;3.80;;;;;;;;;;103689;1292;545123;-70
2024/04/13 09:13:45;;;;;;;8.50;3.70;;;;;;;;;;103387;1292;546062;-71
2024/04/13 09:17:25;;;;;;;17.40;5.70;;;;;;;;;;103683;1292;545728;-72
2024/04/13 09:21:04;;;;;;;12.90;6.20;;;;;;;;;;104091;1286;545147;-72
2024/04/13 09:24:41;;;;;;;17.10;6.60;;;;;;;;;;103728;1295;545179;-72
2024/04/13 09:28:19;;;;;;;11.00;4.10;;;;;;;;;;103834;1292;545412;-72
2024/04/13 09:31:58;;;;;;;12.40;3.80;;;;;;;;;;103794;1289;544734;-71
2024/04/13 09:35:33;;;;;;;7.80;3.70;;;;;;;;;;103717;1290;545292;-69
2024/04/13 09:39:20;;;;;;;8.80;4.60;;;;;;;;;;103707;1291;544828;-74
2024/04/13 09:42:48;;;;;;;9.30;4.60;;;;;;;;;;103583;1291;545994;-70
2024/04/13 09:46:25;;;;;;;8.50;4.40;;;;;;;;;;103731;1295;544763;-71
2024/04/13 09:50:04;;;;;;;9.90;5.10;;;;;;;;;;104011;1291;544840;-72
2024/04/13 09:53:40;;;;;;;8.30;4.70;;;;;;;;;;103885;1289;545428;-73
2024/04/13 09:57:19;;;;;;;9.70;4.40;;;;;;;;;;104436;1283;544753;-69
2024/04/13 10:00:55;;;;;;;9.10;4.50;;;;;;;;;;103705;1289;544726;-69
2024/04/13 10:04:33;;;;;;;9.60;4.40;;;;;;;;;;104025;1292;545414;-70
2024/04/13 10:08:11;;;;;;;9.40;4.80;;;;;;;;;;103689;1291;545272;-69
2024/04/13 10:11:50;;;;;;;8.70;4.30;;;;;;;;;;103922;1288;545149;-73
2024/04/13 10:15:26;;;;;;;9.50;4.50;;;;;;;;;;104246;1285;545228;-69
2024/04/13 10:19:03;;;;;;;10.10;4.30;;;;;;;;;;104029;1289;546290;-72
2024/04/13 10:22:50;;;;;;;7.90;4.10;;;;;;;;;;103703;1290;545462;-69
2024/04/13 10:26:27;;;;;;;8.90;4.40;;;;;;;;;;103835;1289;545730;-71
2024/04/13 10:29:59;;;;;;;10.40;4.20;;;;;;;;;;103764;1289;545094;-69
2024/04/13 10:33:33;;;;;;;11.50;4.30;;;;;;;;;;103752;1288;544757;-71
2024/04/13 10:37:30;;;;;;;8.60;3.80;;;;;;;;;;103678;1295;544979;-70
2024/04/13 10:40:48;;;;;;;7.00;3.70;;;;;;;;;;103751;1296;544939;-70
2024/04/13 10:44:26;;;;;;;7.10;3.50;;;;;;;;;;103560;1292;545104;-71
2024/04/13 10:48:05;;;;;;;7.90;3.10;;;;;;;;;;103531;1292;545173;-71
2024/04/13 10:51:40;;;;;;;9.90;3.40;;;;;;;;;;103749;1289;545000;-70
2024/04/13 10:55:21;;;;;;;8.20;3.00;;;;;;;;;;103728;1291;545367;-72
2024/04/13 10:58:55;;;;;;;13.80;3.20;;;;;;;;;;103791;1291;544715;-68
2024/04/13 11:02:35;;;;;;;8.10;3.50;;;;;;;;;;103876;1300;545529;-71
2024/04/13 11:06:11;;;;;;;8.80;3.20;;;;;;;;;;103821;1291;545296;-69
2024/04/13 11:09:49;;;;;;;7.60;3.20;;;;;;;;;;103641;1291;545208;-69
2024/04/13 11:13:26;;;;;;;5.50;2.80;;;;;;;;;;103958;1287;545075;-70
2024/04/13 11:17:03;;;;;;;7.20;3.00;;;;;;;;;;103636;1291;546329;-71
2024/04/13 11:20:41;;;;;;;5.60;3.00;;;;;;;;;;103775;1288;545599;-70
2024/04/13 11:24:14;;;;;;;7.80;3.50;;;;;;;;;;103498;1291;545559;-69
2024/04/13 11:27:55;;;;;;;8.50;3.00;;;;;;;;;;103823;1292;546294;-70
2024/04/13 11:31:34;;;;;;;7.30;2.60;;;;;;;;;;104003;1289;545042;-71
2024/04/13 11:35:16;;;;;;;8.80;2.50;;;;;;;;;;103881;1289;544861;-72
2024/04/13 11:38:48;;;;;;;7.70;3.00;;;;;;;;;;104009;1289;545417;-72
2024/04/13 11:42:25;;;;;;;8.80;2.70;;;;;;;;;;103617;1292;545504;-69
2024/04/13 11:46:04;;;;;;;6.00;2.70;;;;;;;;;;103656;1291;547393;-71
2024/04/13 11:49:40;;;;;;;8.10;2.60;;;;;;;;;;103649;1292;545943;-69
2024/04/13 11:53:18;;;;;;;8.40;2.90;;;;;;;;;;103680;1292;545055;-70
2024/04/13 11:56:56;;;;;;;7.40;2.70;;;;;;;;;;104029;1289;545989;-76
2024/04/13 12:00:34;;;;;;;7.50;2.80;;;;;;;;;;103769;1291;544943;-72
2024/04/13 12:04:10;;;;;;;6.90;3.30;;;;;;;;;;104299;1288;545870;-71
2024/04/13 12:07:48;;;;;;;8.00;2.70;;;;;;;;;;103792;1291;545759;-70
2024/04/13 12:11:29;;;;;;;6.90;2.70;;;;;;;;;;103763;1290;544729;-73
2024/04/13 12:15:03;;;;;;;7.80;3.10;;;;;;;;;;103609;1294;544972;-71
2024/04/13 12:18:36;;;;;;;8.50;2.90;;;;;;;;;;103764;1291;547570;-69
2024/04/13 12:22:18;;;;;;;11.10;3.20;;;;;;;;;;103498;1292;545079;-70
2024/04/13 12:25:54;;;;;;;5.20;2.60;;;;;;;;;;103626;1292;544701;-69
2024/04/13 12:29:32;;;;;;;6.40;3.00;;;;;;;;;;103855;1291;544724;-73
2024/04/13 12:33:10;;;;;;;7.10;3.00;;;;;;;;;;103827;1294;545296;-70
2024/04/13 12:36:47;;;;;;;6.60;2.70;;;;;;;;;;103581;1291;545114;-69
2024/04/13 12:40:25;;;;;;;7.70;2.60;;;;;;;;;;103981;1291;545022;-70
2024/04/13 12:44:03;;;;;;;6.60;2.70;;;;;;;;;;103986;1288;545844;-70
2024/04/13 12:47:40;;;;;;;5.60;2.40;;;;;;;;;;103653;1291;545133;-69
2024/04/13 12:51:18;;;;;;;6.30;2.70;;;;;;;;;;103741;1292;544762;-70
2024/04/13 12:54:55;;;;;;;7.00;2.50;;;;;;;;;;103783;1291;545110;-69
2024/04/13 12:58:32;;;;;;;4.20;2.20;;;;;;;;;;103643;1291;545501;-70
2024/04/13 13:02:10;;;;;;;6.70;2.60;;;;;;;;;;104044;1291;545684;-72
2024/04/13 13:05:47;;;;;;;5.80;2.60;;;;;;;;;;104026;1289;544781;-72
2024/04/13 13:09:24;;;;;;;7.80;2.70;;;;;;;;;;103821;1288;544968;-73
2024/04/13 13:13:03;;;;;;;6.20;2.60;;;;;;;;;;104507;1283;544591;-71
2024/04/13 13:16:36;;;;;;;9.70;2.90;;;;;;;;;;103784;1292;544970;-70
2024/04/13 13:20:17;;;;;;;6.40;2.20;;;;;;;;;;103670;1292;545872;-69
2024/04/13 13:23:55;;;;;;;5.90;2.70;;;;;;;;;;103614;1295;545505;-73
2024/04/13 13:27:32;;;;;;;9.00;3.30;;;;;;;;;;103662;1292;545025;-71
2024/04/13 13:31:09;;;;;;;7.20;2.70;;;;;;;;;;103691;1291;545532;-72
2024/04/13 13:34:47;;;;;;;7.20;2.60;;;;;;;;;;103996;1292;545482;-69
2024/04/13 13:38:24;;;;;;;5.40;2.40;;;;;;;;;;103780;1291;545588;-72
2024/04/13 13:42:03;;;;;;;5.70;2.20;;;;;;;;;;103773;1289;545112;-69
2024/04/13 13:45:40;;;;;;;4.90;2.10;;;;;;;;;;103497;1292;546741;-69
2024/04/13 13:49:17;;;;;;;7.20;2.70;;;;;;;;;;103758;1291;544918;-72
2024/04/13 13:52:54;;;;;;;8.60;3.10;;;;;;;;;;103558;1293;545397;-70
2024/04/13 13:56:32;;;;;;;7.80;2.50;;;;;;;;;;103450;1292;544756;-69
2024/04/13 14:00:10;;;;;;;5.80;2.20;;;;;;;;;;103623;1291;545202;-69
2024/04/13 14:03:47;;;;;;;7.40;2.50;;;;;;;;;;103789;1295;544611;-72
2024/04/13 14:07:24;;;;;;;7.10;2.20;;;;;;;;;;103752;1294;544697;-71
2024/04/13 14:11:02;;;;;;;5.60;1.90;;;;;;;;;;103609;1292;544810;-67
2024/04/13 14:14:39;;;;;;;7.60;2.20;;;;;;;;;;103757;1294;544941;-70
2024/04/13 14:18:17;;;;;;;5.80;2.10;;;;;;;;;;103784;1292;545711;-70
2024/04/13 14:21:54;;;;;;;7.80;2.20;;;;;;;;;;103837;1289;544757;-71
2024/04/13 14:25:32;;;;;;;6.70;2.30;;;;;;;;;;104532;1282;544751;-74
2024/04/13 14:29:09;;;;;;;5.40;2.10;;;;;;;;;;103674;1289;545429;-69
2024/04/13 14:32:47;;;;;;;6.60;2.50;;;;;;;;;;104287;1286;544757;-67
2024/04/13 14:36:24;;;;;;;5.30;2.00;;;;;;;;;;103755;1289;545314;-73
2024/04/13 14:40:02;;;;;;;5.80;2.10;;;;;;;;;;104294;1285;544956;-70
2024/04/13 14:43:39;;;;;;;4.80;1.90;;;;;;;;;;103688;1291;545980;-70
2024/04/13 14:47:17;;;;;;;6.50;2.40;;;;;;;;;;104289;1285;545504;-71
2024/04/13 14:50:54;;;;;;;10.20;2.30;;;;;;;;;;104173;1286;544950;-70
2024/04/13 14:54:32;;;;;;;6.40;2.30;;;;;;;;;;103651;1290;545782;-69
2024/04/13 14:58:08;;;;;;;5.70;1.90;;;;;;;;;;103695;1291;545024;-70
2024/04/13 15:01:47;;;;;;;5.40;2.20;;;;;;;;;;103742;1290;545201;-69
2024/04/13 15:05:24;;;;;;;7.80;2.40;;;;;;;;;;103793;1289;544722;-72
2024/04/13 15:09:02;;;;;;;6.70;2.40;;;;;;;;;;103788;1289;545510;-71
2024/04/13 15:12:39;;;;;;;6.10;2.40;;;;;;;;;;103704;1292;545135;-71
2024/04/13 15:16:17;;;;;;;5.60;2.20;;;;;;;;;;103845;1291;544938;-70
2024/04/13 15:19:54;;;;;;;6.60;2.30;;;;;;;;;;103755;1290;545705;-70
2024/04/13 15:23:32;;;;;;;6.10;2.20;;;;;;;;;;103689;1291;545017;-70
2024/04/13 15:27:09;;;;;;;6.50;2.10;;;;;;;;;;103688;1291;545167;-70
2024/04/13 15:30:47;;;;;;;9.00;2.90;;;;;;;;;;103888;1292;544711;-70
2024/04/13 15:34:24;;;;;;;7.90;2.90;;;;;;;;;;103992;1292;544787;-69
2024/04/13 15:38:02;;;;;;;6.40;2.30;;;;;;;;;;103678;1292;545027;-74
2024/04/13 15:41:39;;;;;;;4.40;1.80;;;;;;;;;;103854;1289;545542;-72
2024/04/13 15:45:17;;;;;;;6.20;2.10;;;;;;;;;;103655;1291;545537;-72
2024/04/13 15:48:54;;;;;;;6.20;2.10;;;;;;;;;;104032;1289;545103;-70
2024/04/13 15:52:32;;;;;;;5.40;2.30;;;;;;;;;;103706;1294;547582;-69
2024/04/13 15:56:09;;;;;;;6.00;2.20;;;;;;;;;;104075;1298;544896;-70
2024/04/13 15:59:47;;;;;;;10.40;2.50;;;;;;;;;;103813;1289;544713;-71
2024/04/13 16:03:24;;;;;;;8.10;2.60;;;;;;;;;;103582;1295;545553;-74
2024/04/13 16:07:02;;;;;;;6.10;2.00;;;;;;;;;;103872;1296;545037;-71
2024/04/13 16:10:39;;;;;;;8.80;2.10;;;;;;;;;;103739;1292;545377;-70
2024/04/13 16:14:19;;;;;;;4.50;2.00;;;;;;;;;;103729;1295;545732;-71
2024/04/13 16:17:54;;;;;;;5.90;2.00;;;;;;;;;;103821;1289;544794;-71
2024/04/13 16:21:32;;;;;;;5.90;2.00;;;;;;;;;;103654;1289;545660;-74
2024/04/13 16:25:09;;;;;;;5.10;2.10;;;;;;;;;;104422;1282;544935;-73
2024/04/13 16:28:47;;;;;;;4.20;1.80;;;;;;;;;;103625;1291;545008;-70
2024/04/13 16:32:28;;;;;;;6.40;1.90;;;;;;;;;;103496;1294;546465;-71
2024/04/13 16:36:02;;;;;;;4.80;1.90;;;;;;;;;;103733;1291;547331;-71
2024/04/13 16:39:38;;;;;;;5.70;2.00;;;;;;;;;;104727;1283;544763;-70
2024/04/13 16:43:13;;;;;;;5.30;2.20;;;;;;;;;;104285;1286;545167;-70
2024/04/13 16:46:50;;;;;;;6.70;2.70;;;;;;;;;;103658;1289;545019;-71
2024/04/13 16:50:32;;;;;;;9.00;3.40;;;;;;;;;;104841;1287;544874;-70
2024/04/13 16:54:09;;;;;;;7.70;3.00;;;;;;;;;;103668;1290;545046;-69
2024/04/13 16:57:47;;;;;;;8.40;2.70;;;;;;;;;;105635;1291;545553;-69
2024/04/13 17:01:20;;;;;;;8.10;2.40;;;;;;;;;;103835;1294;545196;-71
2024/04/13 17:05:02;;;;;;;10.80;2.50;;;;;;;;;;103632;1292;547054;-70
2024/04/13 17:08:39;;;;;;;7.90;2.30;;;;;;;;;;103769;1292;545846;-71
2024/04/13 17:12:17;;;;;;;8.00;2.50;;;;;;;;;;103769;1292;544723;-71
2024/04/13 17:15:54;;;;;;;9.90;2.60;;;;;;;;;;103732;1291;545047;-71
2024/04/13 17:19:33;;;;;;;6.60;2.30;;;;;;;;;;103917;1290;545028;-72
2024/04/13 17:23:09;;;;;;;8.50;2.50;;;;;;;;;;103700;1288;544964;-71
2024/04/13 17:26:43;;;;;;;7.10;2.50;;;;;;;;;;103625;1291;546883;-72
2024/04/13 17:30:24;;;;;;;10.20;3.50;;;;;;;;;;103694;1292;544966;-71
2024/04/13 17:34:02;;;;;;;21.40;10.40;;;;;;;;;;103774;1289;545859;-73
2024/04/13 17:37:39;;;;;;;14.00;6.60;;;;;;;;;;103663;1291;545484;-72
2024/04/13 17:41:23;;;;;;;17.90;9.50;;;;;;;;;;103599;1289;548013;-73
2024/04/13 17:44:54;;;;;;;15.50;6.60;;;;;;;;;;103737;1292;544931;-70
2024/04/13 17:48:32;;;;;;;14.00;4.70;;;;;;;;;;103569;1291;544959;-71
2024/04/13 17:52:09;;;;;;;13.20;5.50;;;;;;;;;;104040;1289;545471;-73
2024/04/13 17:55:47;;;;;;;14.50;6.90;;;;;;;;;;103786;1290;545617;-71
2024/04/13 17:59:24;;;;;;;13.90;6.60;;;;;;;;;;103781;1290;544978;-72
2024/04/13 18:03:02;;;;;;;14.50;7.20;;;;;;;;;;103642;1291;545053;-70
2024/04/13 18:06:39;;;;;;;15.60;7.30;;;;;;;;;;103671;1291;544998;-71
2024/04/13 18:10:17;;;;;;;12.60;6.90;;;;;;;;;;103830;1291;545003;-71
2024/04/13 18:13:54;;;;;;;12.50;6.80;;;;;;;;;;103683;1292;545349;-70
2024/04/13 18:17:32;;;;;;;11.40;6.50;;;;;;;;;;103866;1290;544957;-72
2024/04/13 18:21:09;;;;;;;11.80;6.40;;;;;;;;;;103630;1292;545443;-71
2024/04/13 18:24:47;;;;;;;17.10;7.30;;;;;;;;;;103835;1289;544764;-70
2024/04/13 18:28:24;;;;;;;14.80;7.50;;;;;;;;;;104043;1288;545010;-71
2024/04/13 18:32:02;;;;;;;16.30;8.60;;;;;;;;;;103920;1288;545077;-71
2024/04/13 18:35:38;;;;;;;15.50;8.40;;;;;;;;;;103631;1291;545753;-71
2024/04/13 18:39:18;;;;;;;17.30;8.80;;;;;;;;;;104273;1286;545157;-70
2024/04/13 18:42:54;;;;;;;16.30;8.90;;;;;;;;;;103607;1292;545574;-71
2024/04/13 18:46:31;;;;;;;17.70;9.20;;;;;;;;;;103760;1289;544824;-70
2024/04/13 18:50:10;;;;;;;16.70;8.40;;;;;;;;;;103815;1291;544802;-70
2024/04/13 18:53:42;;;;;;;14.40;7.20;;;;;;;;;;103681;1289;545664;-70
2024/04/13 18:57:23;;;;;;;18.90;9.80;;;;;;;;;;103611;1295;545687;-70
2024/04/13 19:01:08;;;;;;;11.30;5.60;;;;;;;;;;104181;1285;545859;-71
2024/04/13 19:04:41;;;;;;;10.80;5.00;;;;;;;;;;104287;1286;548075;-70
2024/04/13 19:08:17;;;;;;;10.50;5.30;;;;;;;;;;103962;1291;544978;-70
2024/04/13 19:11:53;;;;;;;11.60;5.00;;;;;;;;;;103626;1291;544884;-71
2024/04/13 19:15:31;;;;;;;10.60;5.40;;;;;;;;;;103996;1288;544913;-70
2024/04/13 19:19:09;;;;;;;12.30;6.30;;;;;;;;;;103719;1291;544793;-70
2024/04/13 19:22:46;;;;;;;12.60;6.00;;;;;;;;;;104011;1285;545310;-72
2024/04/13 19:26:23;;;;;;;12.30;5.60;;;;;;;;;;103772;1292;545375;-72
2024/04/13 19:30:01;;;;;;;11.60;6.20;;;;;;;;;;103543;1292;545308;-70
2024/04/13 19:33:38;;;;;;;12.90;5.80;;;;;;;;;;103510;1291;546110;-73
2024/04/13 19:37:12;;;;;;;10.70;5.80;;;;;;;;;;103866;1289;544613;-72
2024/04/13 19:40:52;;;;;;;8.90;5.00;;;;;;;;;;103738;1295;545623;-70
2024/04/13 19:44:27;;;;;;;10.50;6.10;;;;;;;;;;103431;1292;545148;-72
2024/04/13 19:48:08;;;;;;;10.00;5.00;;;;;;;;;;103403;1291;545617;-70
2024/04/13 19:51:46;;;;;;;11.40;5.60;;;;;;;;;;103776;1289;545492;-71
2024/04/13 19:55:22;;;;;;;10.80;5.70;;;;;;;;;;103798;1289;545379;-72
2024/04/13 19:59:01;;;;;;;11.70;7.10;;;;;;;;;;103629;1289;544922;-73
2024/04/13 20:02:38;;;;;;;9.60;5.40;;;;;;;;;;103879;1288;545082;-70
2024/04/13 20:06:15;;;;;;;10.40;4.90;;;;;;;;;;103662;1292;546532;-71
2024/04/13 20:09:53;;;;;;;10.40;5.50;;;;;;;;;;103534;1291;545605;-70
2024/04/13 20:13:31;;;;;;;8.80;4.80;;;;;;;;;;103425;1292;545771;-71
2024/04/13 20:20:46;;;;;;;10.00;5.20;;;;;;;;;;103490;1292;545469;-70
2024/04/13 20:24:23;;;;;;;9.70;4.80;;;;;;;;;;103752;1295;545167;-72
2024/04/13 20:28:01;;;;;;;10.00;4.90;;;;;;;;;;103765;1292;544863;-71
2024/04/13 20:31:39;;;;;;;13.50;5.00;;;;;;;;;;103814;1296;544859;-70
2024/04/13 20:35:16;;;;;;;9.60;4.30;;;;;;;;;;103643;1291;545042;-70
2024/04/13 20:38:53;;;;;;;9.20;4.90;;;;;;;;;;103631;1289;545989;-70
2024/04/13 20:42:30;;;;;;;10.30;4.70;;;;;;;;;;103590;1296;544954;-70
2024/04/13 20:46:08;;;;;;;8.50;4.40;;;;;;;;;;103824;1289;544791;-70
2024/04/13 20:49:45;;;;;;;10.20;4.90;;;;;;;;;;103759;1292;545016;-70
2024/04/13 20:53:18;;;;;;;8.30;4.70;;;;;;;;;;103515;1291;547482;-70
2024/04/13 20:57:00;;;;;;;9.10;4.50;;;;;;;;;;103719;1291;545145;-69
2024/04/13 21:00:38;;;;;;;8.30;4.40;;;;;;;;;;104096;1286;545481;-71
2024/04/13 21:04:15;;;;;;;8.40;4.30;;;;;;;;;;103878;1288;545472;-69